createdAt,value
2023-01-20T00:01:03.985Z,59.40
2023-01-20T00:03:30.419Z,56.97
2023-01-20T00:05:57.097Z,49.07
2023-01-20T00:08:23.627Z,50.17
2023-01-20T00:10:50.047Z,54.13
2023-01-20T00:13:16.441Z,52.83
2023-01-20T00:15:42.962Z,49.77
2023-01-20T00:18:09.547Z,46.27
2023-01-20T00:20:37.133Z,59.20
2023-01-20T00:23:03.599Z,50.70
2023-01-20T00:25:30.040Z,50.63
2023-01-20T00:27:56.495Z,50.30
2023-01-20T00:30:23.059Z,48.97
2023-01-20T00:32:49.548Z,46.63
2023-01-20T00:35:15.991Z,41.50
2023-01-20T00:37:44.958Z,49.70
2023-01-20T00:40:11.547Z,53.47
2023-01-20T00:42:37.966Z,37.67
2023-01-20T00:45:04.546Z,54.20
2023-01-20T00:47:31.189Z,51.63
2023-01-20T00:49:57.611Z,59.00
2023-01-20T00:52:24.066Z,36.30
2023-01-20T00:54:50.497Z,45.43
2023-01-20T00:57:16.929Z,39.33
2023-01-20T00:59:43.366Z,51.73
2023-01-20T01:02:09.858Z,38.70
2023-01-20T01:04:36.391Z,42.67
2023-01-20T01:07:02.802Z,50.30
2023-01-20T01:09:29.369Z,47.67
2023-01-20T01:11:55.899Z,38.50
2023-01-20T01:14:22.338Z,35.60
2023-01-20T01:16:48.739Z,44.23
2023-01-20T01:19:17.422Z,37.67
2023-01-20T01:21:43.828Z,42.50
2023-01-20T01:24:11.050Z,38.80
2023-01-20T01:26:37.477Z,40.60
2023-01-20T01:29:03.865Z,36.47
2023-01-20T01:31:30.470Z,44.87
2023-01-20T01:33:57.006Z,42.90
2023-01-20T01:36:23.437Z,39.10
2023-01-20T01:38:59.099Z,40.23
2023-01-20T01:41:25.935Z,49.33
2023-01-20T01:44:21.628Z,40.40
2023-01-20T01:46:48.048Z,43.00
2023-01-20T01:49:28.956Z,41.77
2023-01-20T01:51:58.503Z,45.17
2023-01-20T01:54:26.749Z,41.67
2023-01-20T01:56:53.379Z,37.23
2023-01-20T01:59:20.238Z,45.13
2023-01-20T02:01:51.681Z,41.23
2023-01-20T02:04:21.048Z,45.57
2023-01-20T02:07:15.640Z,43.10
2023-01-20T02:09:42.100Z,47.03
2023-01-20T02:12:10.629Z,48.23
2023-01-20T02:14:41.556Z,43.83
2023-01-20T02:17:26.881Z,45.93
2023-01-20T02:20:08.504Z,43.23
2023-01-20T02:23:01.135Z,45.63
2023-01-20T02:25:57.039Z,47.00
2023-01-20T02:28:42.312Z,49.57
2023-01-20T02:31:08.672Z,47.80
2023-01-20T02:33:39.129Z,49.47
2023-01-20T02:36:10.074Z,53.80
2023-01-20T02:38:42.677Z,42.00
2023-01-20T02:41:18.416Z,44.40
2023-01-20T02:43:46.907Z,47.47
2023-01-20T02:46:28.418Z,41.17
2023-01-20T02:48:57.210Z,36.73
2023-01-20T02:51:26.368Z,40.30
2023-01-20T02:54:05.259Z,38.93
2023-01-20T02:56:32.168Z,36.60
2023-01-20T02:59:19.912Z,37.47
2023-01-20T03:01:50.568Z,39.33
2023-01-20T03:04:19.130Z,41.70
2023-01-20T03:06:49.576Z,39.57
2023-01-20T03:09:18.349Z,41.40
2023-01-20T03:11:47.254Z,43.13
2023-01-20T03:14:14.408Z,39.23
2023-01-20T03:16:41.351Z,42.13
2023-01-20T03:19:07.970Z,45.23
2023-01-20T03:21:34.888Z,47.83
2023-01-20T03:24:02.244Z,46.50
2023-01-20T03:26:28.727Z,47.03
2023-01-20T03:28:55.451Z,44.57
2023-01-20T03:31:23.912Z,45.57
2023-01-20T03:33:51.644Z,44.20
2023-01-20T03:36:18.393Z,46.57
2023-01-20T03:38:45.364Z,42.50
2023-01-20T03:41:20.590Z,40.57
2023-01-20T03:43:55.685Z,43.13
2023-01-20T03:46:27.460Z,45.03
2023-01-20T03:49:00.653Z,43.27
2023-01-20T03:51:46.300Z,43.07
2023-01-20T03:54:15.465Z,47.90
2023-01-20T03:56:54.149Z,39.87
2023-01-20T03:59:20.962Z,42.90
2023-01-20T04:01:48.459Z,39.90
2023-01-20T04:04:16.951Z,45.07
2023-01-20T04:06:44.156Z,42.90
2023-01-20T04:09:16.963Z,39.33
2023-01-20T04:11:43.413Z,43.20
2023-01-20T04:14:10.851Z,45.00
2023-01-20T04:16:37.588Z,44.07
2023-01-20T04:19:03.962Z,41.07
2023-01-20T04:21:42.026Z,37.03
2023-01-20T04:24:37.767Z,42.43
2023-01-20T04:27:04.557Z,42.20
2023-01-20T04:29:30.952Z,42.37
2023-01-20T04:32:01.196Z,45.97
2023-01-20T04:34:27.914Z,40.73
2023-01-20T04:36:54.535Z,39.70
2023-01-20T04:39:21.123Z,46.03
2023-01-20T04:41:47.845Z,45.13
2023-01-20T04:44:14.338Z,39.57
2023-01-20T04:46:41.009Z,41.43
2023-01-20T04:49:07.455Z,43.57
2023-01-20T04:51:33.853Z,40.70
2023-01-20T04:54:00.519Z,43.40
2023-01-20T04:56:26.999Z,44.83
2023-01-20T04:58:53.503Z,39.97
2023-01-20T05:01:19.936Z,40.80
2023-01-20T05:03:46.404Z,39.37
2023-01-20T05:06:13.519Z,47.07
2023-01-20T05:08:39.935Z,44.77
2023-01-20T05:11:06.634Z,41.27
2023-01-20T05:13:35.592Z,43.57
2023-01-20T05:16:03.214Z,33.93
2023-01-20T05:18:29.720Z,32.93
2023-01-20T05:20:56.182Z,36.57
2023-01-20T05:23:22.599Z,40.73
2023-01-20T05:25:52.880Z,33.00
2023-01-20T05:28:19.522Z,35.20
2023-01-20T05:30:46.773Z,34.77
2023-01-20T05:33:13.212Z,34.57
2023-01-20T05:35:39.687Z,36.20
2023-01-20T05:38:06.350Z,40.70
2023-01-20T05:40:32.813Z,36.67
2023-01-20T05:42:59.779Z,32.60
2023-01-20T05:45:26.219Z,36.20
2023-01-20T05:47:59.062Z,31.97
2023-01-20T05:50:26.575Z,30.80
2023-01-20T05:52:53.038Z,28.80
2023-01-20T05:55:19.896Z,28.77
2023-01-20T05:57:46.317Z,30.60
2023-01-20T06:00:14.142Z,31.37
2023-01-20T06:02:40.999Z,23.97
2023-01-20T06:05:07.707Z,26.87
2023-01-20T06:07:34.141Z,24.50
2023-01-20T06:10:00.893Z,27.87
2023-01-20T06:12:27.520Z,29.40
2023-01-20T06:14:53.925Z,25.57
2023-01-20T06:17:20.348Z,30.50
2023-01-20T06:19:46.822Z,29.73
2023-01-20T06:22:15.163Z,29.80
2023-01-20T06:24:41.626Z,25.07
2023-01-20T06:27:09.104Z,27.63
2023-01-20T06:29:35.560Z,28.07
2023-01-20T06:32:02.047Z,31.40
2023-01-20T06:34:28.500Z,30.30
2023-01-20T06:36:54.962Z,31.70
2023-01-20T06:39:21.416Z,33.07
2023-01-20T06:41:47.847Z,35.83
2023-01-20T06:44:15.399Z,34.77
2023-01-20T06:46:42.164Z,36.20
2023-01-20T06:49:08.657Z,34.50
2023-01-20T06:51:35.093Z,35.20
2023-01-20T06:54:01.524Z,33.63
2023-01-20T06:56:27.948Z,34.60
2023-01-20T06:58:54.522Z,33.97
2023-01-20T07:01:21.037Z,32.60
2023-01-20T07:03:47.537Z,29.90
2023-01-20T07:06:15.609Z,29.70
2023-01-20T07:08:45.629Z,32.87
2023-01-20T07:11:12.691Z,34.00
2023-01-20T07:13:39.328Z,37.40
2023-01-20T07:16:05.997Z,35.57
2023-01-20T07:18:32.489Z,34.00
2023-01-20T07:21:00.212Z,36.33
2023-01-20T07:23:27.616Z,34.90
2023-01-20T07:26:20.417Z,34.03
2023-01-20T07:28:47.295Z,37.63
2023-01-20T07:31:15.663Z,33.73
2023-01-20T07:33:42.647Z,34.37
2023-01-20T07:36:24.401Z,34.80
2023-01-20T07:38:51.279Z,32.43
2023-01-20T07:41:18.175Z,33.17
2023-01-20T07:43:45.275Z,35.90
2023-01-20T07:46:12.032Z,35.10
2023-01-20T07:48:38.476Z,33.77
2023-01-20T07:51:06.473Z,34.73
2023-01-20T07:53:34.202Z,36.10
2023-01-20T07:56:01.598Z,39.30
2023-01-20T07:58:28.577Z,37.93
2023-01-20T08:00:55.493Z,39.23
2023-01-20T08:03:22.192Z,37.07
2023-01-20T08:05:48.585Z,38.30
2023-01-20T08:08:15.051Z,37.27
2023-01-20T08:10:41.598Z,39.17
2023-01-20T08:13:08.091Z,37.07
2023-01-20T08:15:34.659Z,37.17
2023-01-20T08:18:01.149Z,33.30
2023-01-20T08:20:27.584Z,36.17
2023-01-20T08:22:54.100Z,35.27
2023-01-20T08:25:20.561Z,40.67
2023-01-20T08:27:48.039Z,34.70
2023-01-20T08:30:14.715Z,32.17
2023-01-20T08:32:41.127Z,32.10
2023-01-20T08:35:07.788Z,33.57
2023-01-20T08:37:36.001Z,31.50
2023-01-20T08:40:02.492Z,30.53
2023-01-20T08:42:28.945Z,29.50
2023-01-20T08:44:55.369Z,30.27
2023-01-20T08:47:21.900Z,31.33
2023-01-20T08:49:48.292Z,30.33
2023-01-20T08:52:14.740Z,27.13
2023-01-20T08:54:41.248Z,29.07
2023-01-20T08:57:07.827Z,29.53
2023-01-20T08:59:34.275Z,31.23
2023-01-20T09:02:00.874Z,33.27
2023-01-20T09:04:27.321Z,28.27
2023-01-20T09:06:54.063Z,29.63
2023-01-20T09:09:21.696Z,30.50
2023-01-20T09:11:51.760Z,30.17
2023-01-20T09:14:22.616Z,25.97
2023-01-20T09:16:49.347Z,27.83
2023-01-20T09:19:16.238Z,27.67
2023-01-20T09:21:43.115Z,28.00
2023-01-20T09:24:09.966Z,26.37
2023-01-20T09:26:39.230Z,26.87
2023-01-20T09:29:10.320Z,27.27
2023-01-20T09:31:50.189Z,27.20
2023-01-20T09:34:21.650Z,29.23
2023-01-20T09:36:52.191Z,29.70
2023-01-20T09:39:38.434Z,26.67
2023-01-20T09:42:44.687Z,26.43
2023-01-20T09:45:26.177Z,26.63
2023-01-20T09:47:55.645Z,26.27
2023-01-20T09:50:59.899Z,27.23
2023-01-20T09:53:32.645Z,25.03
2023-01-20T09:56:25.799Z,24.50
2023-01-20T09:59:05.654Z,27.60
2023-01-20T10:01:38.635Z,24.33
2023-01-20T10:04:10.067Z,23.80
2023-01-20T10:06:41.554Z,22.57
2023-01-20T10:09:17.904Z,23.17
2023-01-20T10:11:46.542Z,21.47
2023-01-20T10:14:25.079Z,21.40
2023-01-20T10:16:55.685Z,21.00
2023-01-20T10:19:39.618Z,19.67
2023-01-20T10:22:35.461Z,20.53
2023-01-20T10:25:20.139Z,20.83
2023-01-20T10:27:51.781Z,17.17
2023-01-20T10:30:19.286Z,19.90
2023-01-20T10:32:53.079Z,16.73
2023-01-20T10:35:24.984Z,18.63
2023-01-20T10:37:55.680Z,17.27
2023-01-20T10:40:35.277Z,15.77
2023-01-20T10:43:09.737Z,14.90
2023-01-20T10:45:59.685Z,13.57
2023-01-20T10:48:29.421Z,14.97
2023-01-20T10:51:10.647Z,13.13
2023-01-20T10:53:50.642Z,13.70
2023-01-20T10:56:37.614Z,13.80
2023-01-20T10:59:09.493Z,14.33
2023-01-20T11:01:36.541Z,15.43
2023-01-20T11:04:03.036Z,13.70
2023-01-20T11:06:29.573Z,13.63
2023-01-20T11:08:56.667Z,14.10
2023-01-20T11:11:24.424Z,14.97
2023-01-20T11:13:51.832Z,13.20
2023-01-20T11:16:24.549Z,14.13
2023-01-20T11:19:17.582Z,15.40
2023-01-20T11:21:44.055Z,15.57
2023-01-20T11:24:29.190Z,15.33
2023-01-20T11:27:02.511Z,15.47
2023-01-20T11:29:30.037Z,13.70
2023-01-20T11:31:56.975Z,12.60
2023-01-20T11:34:28.199Z,12.27
2023-01-20T11:37:06.939Z,12.73
2023-01-20T11:39:35.040Z,12.37
2023-01-20T11:42:14.399Z,10.87
2023-01-20T11:44:49.983Z,12.70
2023-01-20T11:47:25.719Z,13.33
2023-01-20T11:50:04.353Z,12.50
2023-01-20T11:52:30.809Z,12.57
2023-01-20T11:55:23.675Z,12.10
2023-01-20T11:57:53.802Z,13.07
2023-01-20T12:00:20.219Z,12.60
2023-01-20T12:03:05.899Z,12.57
2023-01-20T12:06:01.754Z,14.03
2023-01-20T12:08:34.842Z,12.77
2023-01-20T12:11:03.247Z,13.30
2023-01-20T12:13:53.282Z,12.10
2023-01-20T12:16:21.888Z,13.37
2023-01-20T12:19:01.840Z,13.57
2023-01-20T12:21:35.474Z,12.70
2023-01-20T12:24:09.671Z,12.40
2023-01-20T12:26:36.233Z,12.80
2023-01-20T12:29:14.324Z,12.50
2023-01-20T12:31:40.844Z,14.23
2023-01-20T12:34:14.770Z,13.00
2023-01-20T12:36:51.951Z,15.57
2023-01-20T12:39:18.423Z,12.47
2023-01-20T12:41:50.942Z,11.83
2023-01-20T12:44:27.502Z,12.40
2023-01-20T12:46:57.078Z,12.27
2023-01-20T12:49:33.706Z,12.60
2023-01-20T12:52:18.842Z,12.00
2023-01-20T12:55:02.742Z,8.43
2023-01-20T12:57:43.436Z,10.47
2023-01-20T13:00:20.884Z,9.67
2023-01-20T13:03:15.520Z,10.67
2023-01-20T13:05:44.767Z,11.03
2023-01-20T13:08:20.412Z,11.93
2023-01-20T13:10:51.024Z,12.37
2023-01-20T13:13:55.889Z,12.47
2023-01-20T13:16:37.707Z,13.60
2023-01-20T13:19:04.218Z,15.37
2023-01-20T13:21:34.457Z,16.27
2023-01-20T13:24:01.888Z,16.10
2023-01-20T13:26:30.816Z,17.40
2023-01-20T13:28:57.850Z,17.77
2023-01-20T13:31:36.686Z,17.40
2023-01-20T13:34:21.700Z,18.83
2023-01-20T13:37:17.760Z,18.10
2023-01-20T13:39:47.827Z,20.97
2023-01-20T13:42:27.329Z,20.77
2023-01-20T13:45:12.171Z,19.37
2023-01-20T13:47:57.719Z,19.73
2023-01-20T13:50:34.459Z,21.10
2023-01-20T13:53:13.691Z,19.73
2023-01-20T13:55:44.145Z,19.70
2023-01-20T13:58:27.983Z,17.57
2023-01-20T14:00:55.635Z,18.40
2023-01-20T14:03:24.242Z,19.30
2023-01-20T14:05:51.734Z,18.47
2023-01-20T14:08:18.416Z,21.40
2023-01-20T14:10:44.918Z,18.77
2023-01-20T14:13:12.251Z,18.67
2023-01-20T14:15:40.193Z,16.17
2023-01-20T14:18:13.339Z,15.40
2023-01-20T14:20:41.288Z,16.27
2023-01-20T14:23:23.339Z,16.20
2023-01-20T14:26:04.025Z,17.43
2023-01-20T14:28:30.722Z,16.90
2023-01-20T14:31:13.918Z,18.10
2023-01-20T14:33:44.931Z,17.70
2023-01-20T14:36:18.608Z,16.67
2023-01-20T14:38:57.246Z,15.67
2023-01-20T14:41:27.558Z,16.57
2023-01-20T14:43:54.475Z,19.43
2023-01-20T14:46:21.750Z,20.20
2023-01-20T14:48:48.568Z,18.90
2023-01-20T14:51:15.213Z,17.23
2023-01-20T14:53:41.724Z,16.50
2023-01-20T14:56:16.176Z,16.57
2023-01-20T14:58:46.875Z,17.00
2023-01-20T15:01:26.622Z,17.60
2023-01-20T15:03:57.065Z,16.43
2023-01-20T15:06:24.356Z,17.83
2023-01-20T15:09:05.589Z,17.73
2023-01-20T15:11:33.828Z,17.90
2023-01-20T15:14:00.753Z,16.13
2023-01-20T15:16:28.343Z,15.47
2023-01-20T15:19:13.420Z,14.93
2023-01-20T15:21:41.166Z,15.80
2023-01-20T15:24:27.919Z,13.73
2023-01-20T15:26:56.134Z,14.20
2023-01-20T15:29:22.550Z,16.03
2023-01-20T15:31:49.243Z,14.83
2023-01-20T15:34:15.721Z,14.23
2023-01-20T15:36:43.612Z,11.53
2023-01-20T15:39:17.217Z,12.73
2023-01-20T15:41:44.030Z,12.23
2023-01-20T15:44:10.593Z,13.70
2023-01-20T15:46:38.595Z,11.07
2023-01-20T15:49:06.865Z,12.33
2023-01-20T15:51:33.527Z,12.53
2023-01-20T15:54:00.000Z,14.27
2023-01-20T15:56:28.041Z,14.67
2023-01-20T15:58:57.695Z,13.43
2023-01-20T16:01:25.235Z,14.90
2023-01-20T16:03:52.089Z,15.43
2023-01-20T16:06:19.697Z,14.23
2023-01-20T16:08:49.125Z,14.37
2023-01-20T16:11:16.336Z,14.47
2023-01-20T16:13:43.063Z,14.87
2023-01-20T16:16:14.083Z,15.17
2023-01-20T16:18:41.033Z,15.63
2023-01-20T16:21:07.697Z,13.27
2023-01-20T16:23:34.133Z,14.93
2023-01-20T16:26:00.679Z,14.27
2023-01-20T16:28:27.115Z,14.67
2023-01-20T16:30:55.393Z,14.47
2023-01-20T16:33:23.203Z,15.23
2023-01-20T16:35:50.337Z,13.80
2023-01-20T16:38:18.219Z,14.43
2023-01-20T16:40:46.664Z,14.37
2023-01-20T16:43:13.209Z,15.00
2023-01-20T16:45:39.773Z,15.50
2023-01-20T16:48:09.096Z,15.23
2023-01-20T16:50:36.546Z,15.77
2023-01-20T16:53:03.221Z,15.50
2023-01-20T16:55:29.762Z,14.13
2023-01-20T16:57:56.226Z,17.33
2023-01-20T17:00:23.410Z,15.47
2023-01-20T17:02:53.474Z,17.73
2023-01-20T17:05:22.611Z,16.90
2023-01-20T17:07:49.955Z,17.73
2023-01-20T17:10:17.634Z,16.90
2023-01-20T17:12:44.568Z,19.27
2023-01-20T17:15:11.510Z,18.10
2023-01-20T17:17:38.764Z,19.10
2023-01-20T17:20:14.999Z,18.97
2023-01-20T17:22:41.568Z,18.20
2023-01-20T17:25:08.789Z,18.57
2023-01-20T17:27:36.054Z,18.43
2023-01-20T17:30:03.412Z,21.73
2023-01-20T17:32:29.906Z,20.27
2023-01-20T17:34:56.417Z,20.47
2023-01-20T17:37:22.905Z,19.73
2023-01-20T17:39:49.512Z,19.93
2023-01-20T17:42:17.626Z,19.23
2023-01-20T17:44:44.210Z,20.77
2023-01-20T17:47:11.503Z,19.93
2023-01-20T17:49:38.206Z,20.93
2023-01-20T17:52:04.985Z,23.30
2023-01-20T17:54:31.605Z,21.97
2023-01-20T17:56:58.203Z,22.43
2023-01-20T17:59:26.224Z,22.40
2023-01-20T18:01:52.955Z,23.10
2023-01-20T18:04:19.505Z,23.53
2023-01-20T18:06:45.985Z,24.00
2023-01-20T18:09:14.037Z,22.60
2023-01-20T18:11:40.578Z,23.93
2023-01-20T18:14:07.189Z,24.27
2023-01-20T18:16:35.469Z,25.23
2023-01-20T18:19:02.308Z,26.47
2023-01-20T18:21:33.491Z,26.77
2023-01-20T18:24:00.361Z,26.50
2023-01-20T18:26:31.292Z,27.30
2023-01-20T18:28:58.943Z,26.90
2023-01-20T18:31:25.828Z,29.10
2023-01-20T18:33:53.599Z,24.90
2023-01-20T18:36:24.662Z,29.23
2023-01-20T18:38:52.238Z,27.07
2023-01-20T18:41:19.500Z,28.73
2023-01-20T18:43:45.971Z,25.33
2023-01-20T18:46:12.504Z,29.27
2023-01-20T18:48:45.199Z,28.27
2023-01-20T18:51:14.765Z,28.07
2023-01-20T18:53:42.422Z,27.17
2023-01-20T18:56:10.150Z,31.97
2023-01-20T18:58:38.471Z,30.23
2023-01-20T19:01:09.438Z,30.00
2023-01-20T19:03:36.442Z,28.93
2023-01-20T19:06:22.421Z,25.93
2023-01-20T19:08:48.920Z,28.20
2023-01-20T19:11:19.896Z,29.43
2023-01-20T19:13:48.564Z,31.00
2023-01-20T19:16:15.548Z,32.37
2023-01-20T19:18:43.280Z,25.90
2023-01-20T19:21:11.358Z,28.53
2023-01-20T19:23:38.050Z,28.03
2023-01-20T19:26:14.054Z,32.70
2023-01-20T19:28:40.717Z,28.33
2023-01-20T19:31:08.322Z,25.80
2023-01-20T19:33:35.383Z,28.20
2023-01-20T19:36:02.959Z,27.17
2023-01-20T19:38:29.449Z,26.07
2023-01-20T19:40:56.010Z,27.43
2023-01-20T19:43:22.488Z,29.60
2023-01-20T19:45:48.971Z,28.33
2023-01-20T19:48:15.473Z,27.70
2023-01-20T19:50:41.891Z,24.97
2023-01-20T19:53:08.347Z,27.50
2023-01-20T19:55:34.759Z,24.83
2023-01-20T19:58:01.292Z,26.83
2023-01-20T20:00:27.710Z,26.17
2023-01-20T20:02:54.618Z,27.43
2023-01-20T20:05:21.202Z,25.27
2023-01-20T20:07:47.727Z,23.37
2023-01-20T20:10:16.473Z,24.40
2023-01-20T20:12:43.015Z,26.00
2023-01-20T20:15:09.698Z,24.83
2023-01-20T20:17:36.138Z,25.73
2023-01-20T20:20:02.778Z,25.67
2023-01-20T20:22:29.269Z,27.80
2023-01-20T20:24:55.744Z,24.27
2023-01-20T20:27:22.314Z,27.53
2023-01-20T20:29:48.887Z,25.73
2023-01-20T20:32:16.759Z,22.43
2023-01-20T20:34:43.215Z,25.73
2023-01-20T20:37:09.678Z,23.43
2023-01-20T20:39:36.260Z,25.13
2023-01-20T20:42:02.755Z,24.03
2023-01-20T20:44:29.245Z,24.83
2023-01-20T20:46:55.704Z,24.13
2023-01-20T20:49:22.235Z,23.03
2023-01-20T20:51:49.191Z,25.77
2023-01-20T20:54:17.012Z,26.27
2023-01-20T20:56:44.062Z,27.03
2023-01-20T20:59:12.079Z,26.60
2023-01-20T21:01:38.726Z,26.90
2023-01-20T21:04:05.804Z,27.10
2023-01-20T21:06:32.674Z,24.40
2023-01-20T21:08:59.348Z,26.63
2023-01-20T21:11:25.848Z,25.17
2023-01-20T21:13:52.905Z,25.53
2023-01-20T21:16:21.946Z,25.87
2023-01-20T21:18:49.284Z,25.43
2023-01-20T21:21:19.505Z,25.50
2023-01-20T21:23:50.601Z,22.83
2023-01-20T21:26:17.062Z,24.40
2023-01-20T21:28:44.386Z,25.13
2023-01-20T21:31:14.394Z,23.17
2023-01-20T21:33:41.521Z,26.33
2023-01-20T21:36:09.093Z,25.13
2023-01-20T21:38:37.281Z,25.60
2023-01-20T21:41:09.750Z,23.20
2023-01-20T21:43:59.060Z,27.03
2023-01-20T21:46:27.690Z,24.70
2023-01-20T21:49:12.724Z,27.10
2023-01-20T21:51:58.018Z,25.17
2023-01-20T21:54:27.828Z,26.13
2023-01-20T21:56:54.667Z,26.00
2023-01-20T21:59:21.151Z,26.50
2023-01-20T22:01:47.666Z,26.80
2023-01-20T22:04:14.147Z,26.27
2023-01-20T22:06:43.712Z,21.97
2023-01-20T22:09:10.199Z,24.50
2023-01-20T22:11:36.700Z,27.43
2023-01-20T22:14:03.520Z,27.93
2023-01-20T22:16:31.924Z,27.23
2023-01-20T22:18:58.518Z,24.63
2023-01-20T22:21:25.544Z,24.77
2023-01-20T22:23:53.515Z,26.00
2023-01-20T22:26:19.945Z,25.20
2023-01-20T22:28:46.475Z,25.23
2023-01-20T22:31:14.194Z,26.77
2023-01-20T22:33:40.748Z,26.53
2023-01-20T22:36:07.311Z,25.70
2023-01-20T22:38:34.110Z,24.83
2023-01-20T22:41:07.974Z,26.43
2023-01-20T22:43:35.137Z,24.90
2023-01-20T22:46:02.265Z,25.60
2023-01-20T22:48:30.090Z,26.93
2023-01-20T22:51:01.679Z,26.50
2023-01-20T22:53:28.141Z,25.60
2023-01-20T22:56:00.987Z,25.87
2023-01-20T22:58:27.855Z,23.33
2023-01-20T23:00:54.348Z,27.43
2023-01-20T23:03:20.823Z,25.83
2023-01-20T23:05:51.219Z,25.27
2023-01-20T23:08:17.820Z,27.00
2023-01-20T23:10:47.237Z,23.70
2023-01-20T23:13:15.764Z,25.50
2023-01-20T23:15:42.232Z,25.53
2023-01-20T23:18:08.711Z,26.07
2023-01-20T23:20:35.190Z,26.73
2023-01-20T23:23:01.693Z,24.30
2023-01-20T23:25:28.366Z,25.20
2023-01-20T23:27:54.802Z,23.97
2023-01-20T23:30:21.244Z,25.73
2023-01-20T23:32:47.629Z,26.43
2023-01-20T23:35:14.130Z,25.03
2023-01-20T23:37:40.640Z,26.93
2023-01-20T23:40:07.281Z,26.10
2023-01-20T23:42:33.695Z,25.27
2023-01-20T23:45:00.155Z,24.43
2023-01-20T23:47:26.630Z,22.97
2023-01-20T23:49:53.116Z,24.60
2023-01-20T23:52:21.527Z,25.27
2023-01-20T23:54:47.965Z,24.10
2023-01-20T23:57:14.399Z,26.13
2023-01-20T23:59:41.004Z,25.97
